createdAt,value
2023-01-27T00:02:11.008Z,24.20
2023-01-27T00:04:41.436Z,23.70
2023-01-27T00:07:11.580Z,24.00
2023-01-27T00:09:42.389Z,24.10
2023-01-27T00:12:39.230Z,24.60
2023-01-27T00:15:11.692Z,20.70
2023-01-27T00:17:42.029Z,21.60
2023-01-27T00:20:13.840Z,22.80
2023-01-27T00:23:02.054Z,23.60
2023-01-27T00:25:33.833Z,23.40
2023-01-27T00:28:05.680Z,26.70
2023-01-27T00:30:36.511Z,26.20
2023-01-27T00:33:25.141Z,28.50
2023-01-27T00:36:06.440Z,25.90
2023-01-27T00:38:40.518Z,28.90
2023-01-27T00:41:19.988Z,26.50
2023-01-27T00:43:52.863Z,21.40
2023-01-27T00:46:24.852Z,26.30
2023-01-27T00:48:55.577Z,20.00
2023-01-27T00:51:26.605Z,24.50
2023-01-27T00:53:56.920Z,25.70
2023-01-27T00:56:28.085Z,26.40
2023-01-27T00:58:58.488Z,25.40
2023-01-27T01:01:29.834Z,24.80
2023-01-27T01:04:00.181Z,25.30
2023-01-27T01:06:30.772Z,23.50
2023-01-27T01:09:01.479Z,24.50
2023-01-27T01:11:32.111Z,25.30
2023-01-27T01:14:02.347Z,25.60
2023-01-27T01:16:32.804Z,28.60
2023-01-27T01:19:03.028Z,28.90
2023-01-27T01:21:33.539Z,24.60
2023-01-27T01:24:03.986Z,25.90
2023-01-27T01:26:34.407Z,27.70
2023-01-27T01:29:04.803Z,27.40
2023-01-27T01:31:35.581Z,30.30
2023-01-27T01:34:05.899Z,28.10
2023-01-27T01:36:36.268Z,28.50
2023-01-27T01:39:06.850Z,23.80
2023-01-27T01:41:37.456Z,27.00
2023-01-27T01:44:24.369Z,29.40
2023-01-27T01:46:55.237Z,24.30
2023-01-27T01:49:27.684Z,27.60
2023-01-27T01:52:00.669Z,33.20
2023-01-27T01:54:33.153Z,23.20
2023-01-27T01:57:09.355Z,26.80
2023-01-27T01:59:42.525Z,25.10
2023-01-27T02:02:15.935Z,24.10
2023-01-27T02:04:51.043Z,27.00
2023-01-27T02:07:23.199Z,22.80
2023-01-27T02:09:53.966Z,27.10
2023-01-27T02:12:24.360Z,28.10
2023-01-27T02:14:56.331Z,64.20
2023-01-27T02:17:27.684Z,63.60
2023-01-27T02:22:33.550Z,34.50
2023-01-27T02:25:11.026Z,36.90
2023-01-27T02:27:42.301Z,39.60
2023-01-27T02:30:13.791Z,43.60
2023-01-27T02:32:44.300Z,60.30
2023-01-27T02:35:18.238Z,43.50
2023-01-27T02:37:49.541Z,40.10
2023-01-27T02:40:21.135Z,33.20
2023-01-27T02:42:52.338Z,32.40
2023-01-27T02:45:24.998Z,31.80
2023-01-27T02:47:55.333Z,31.40
2023-01-27T02:50:26.483Z,29.30
2023-01-27T02:52:57.204Z,29.20
2023-01-27T02:55:28.043Z,34.10
2023-01-27T02:57:58.464Z,30.60
2023-01-27T03:00:28.894Z,30.70
2023-01-27T03:03:00.655Z,27.50
2023-01-27T03:05:31.040Z,35.20
2023-01-27T03:08:01.392Z,32.10
2023-01-27T03:10:32.150Z,33.50
2023-01-27T03:13:02.534Z,28.50
2023-01-27T03:15:50.915Z,24.30
2023-01-27T03:18:22.368Z,28.90
2023-01-27T03:20:52.900Z,27.50
2023-01-27T03:23:23.930Z,24.50
2023-01-27T03:25:54.765Z,25.80
2023-01-27T03:28:25.072Z,30.30
2023-01-27T03:31:02.085Z,29.70
2023-01-27T03:33:33.010Z,31.40
2023-01-27T03:36:21.939Z,33.30
2023-01-27T03:39:10.556Z,28.60
2023-01-27T03:41:59.340Z,27.60
2023-01-27T03:44:47.600Z,31.10
2023-01-27T03:47:17.962Z,33.20
2023-01-27T03:49:48.254Z,29.60
2023-01-27T03:52:18.397Z,28.90
2023-01-27T03:54:48.820Z,34.60
2023-01-27T03:57:19.191Z,28.90
2023-01-27T03:59:49.535Z,28.10
2023-01-27T04:02:37.443Z,33.60
2023-01-27T04:05:27.449Z,31.80
2023-01-27T04:07:57.817Z,32.50
2023-01-27T04:10:28.101Z,31.00
2023-01-27T04:12:58.778Z,28.60
2023-01-27T04:15:28.985Z,30.90
2023-01-27T04:17:59.824Z,32.40
2023-01-27T04:20:30.133Z,31.80
2023-01-27T04:23:00.977Z,35.60
2023-01-27T04:25:31.301Z,29.70
2023-01-27T04:28:02.024Z,37.00
2023-01-27T04:30:32.875Z,31.60
2023-01-27T04:33:06.161Z,34.40
2023-01-27T04:35:39.298Z,32.40
2023-01-27T04:38:09.779Z,32.30
2023-01-27T04:40:40.389Z,36.50
2023-01-27T04:43:10.435Z,37.10
2023-01-27T04:45:41.082Z,30.90
2023-01-27T04:48:11.484Z,31.40
2023-01-27T04:50:41.986Z,35.90
2023-01-27T04:53:12.816Z,36.70
2023-01-27T04:55:43.298Z,38.90
2023-01-27T04:58:16.780Z,43.80
2023-01-27T05:00:48.045Z,43.30
2023-01-27T05:03:18.450Z,37.90
2023-01-27T05:05:49.039Z,40.30
2023-01-27T05:08:19.694Z,45.20
2023-01-27T05:10:50.024Z,37.80
2023-01-27T05:13:22.860Z,42.20
2023-01-27T05:16:05.689Z,43.60
2023-01-27T05:18:36.180Z,51.20
2023-01-27T05:21:08.372Z,39.00
2023-01-27T05:23:38.869Z,41.30
2023-01-27T05:26:12.808Z,47.20
2023-01-27T05:28:45.140Z,50.20
2023-01-27T05:31:18.626Z,47.00
2023-01-27T05:33:53.255Z,46.10
2023-01-27T05:36:24.909Z,47.10
2023-01-27T05:38:55.813Z,52.80
2023-01-27T05:46:26.190Z,37.30
2023-01-27T05:49:00.990Z,47.40
2023-01-27T05:51:32.713Z,47.40
2023-01-27T05:54:03.479Z,45.70
2023-01-27T05:56:35.985Z,37.20
2023-01-27T05:59:06.730Z,44.70
2023-01-27T06:01:37.698Z,46.30
2023-01-27T06:06:37.721Z,41.50
2023-01-27T06:09:08.058Z,34.60
2023-01-27T06:11:38.612Z,47.00
2023-01-27T06:14:09.060Z,46.60
2023-01-27T06:16:40.848Z,40.70
2023-01-27T06:19:12.056Z,51.80
2023-01-27T06:21:43.526Z,42.40
2023-01-27T06:24:14.575Z,41.20
2023-01-27T06:26:45.867Z,44.70
2023-01-27T06:29:15.986Z,50.20
2023-01-27T06:31:49.349Z,42.80
2023-01-27T06:34:20.238Z,45.80
2023-01-27T06:36:50.605Z,40.50
2023-01-27T06:41:52.115Z,41.60
2023-01-27T06:44:22.416Z,48.50
2023-01-27T06:46:53.648Z,42.20
2023-01-27T06:49:24.023Z,45.50
2023-01-27T06:51:54.965Z,42.20
2023-01-27T06:54:25.620Z,47.00
2023-01-27T06:56:56.059Z,39.20
2023-01-27T06:59:26.292Z,44.00
2023-01-27T07:01:57.336Z,40.40
2023-01-27T07:04:28.032Z,43.00
2023-01-27T07:06:58.371Z,43.20
2023-01-27T07:09:29.846Z,45.30
2023-01-27T07:12:02.215Z,43.10
2023-01-27T07:14:41.347Z,45.70
2023-01-27T07:17:12.219Z,45.00
2023-01-27T07:19:42.598Z,43.70
2023-01-27T07:22:12.937Z,40.00
2023-01-27T07:24:43.511Z,42.20
2023-01-27T07:27:14.025Z,47.90
2023-01-27T07:29:44.627Z,41.80
2023-01-27T07:32:15.159Z,46.40
2023-01-27T07:34:45.640Z,41.60
2023-01-27T07:37:16.701Z,47.20
2023-01-27T07:39:47.994Z,44.60
2023-01-27T07:42:18.664Z,46.50
2023-01-27T07:44:48.955Z,42.90
2023-01-27T07:47:19.884Z,42.30
2023-01-27T07:49:50.319Z,45.10
2023-01-27T07:52:21.217Z,48.10
2023-01-27T07:54:52.141Z,44.40
2023-01-27T07:57:23.707Z,41.10
2023-01-27T07:59:57.983Z,38.80
2023-01-27T08:02:29.229Z,40.00
2023-01-27T08:04:59.755Z,41.90
2023-01-27T08:07:30.276Z,40.60
2023-01-27T08:10:00.859Z,44.50
2023-01-27T08:12:31.276Z,42.10
2023-01-27T08:15:02.709Z,44.50
2023-01-27T08:17:33.645Z,38.50
2023-01-27T08:20:04.330Z,45.90
2023-01-27T08:22:34.916Z,42.30
2023-01-27T08:25:05.864Z,40.40
2023-01-27T08:27:36.295Z,39.00
2023-01-27T08:32:37.772Z,33.20
2023-01-27T08:35:09.383Z,31.50
2023-01-27T08:37:40.679Z,37.10
2023-01-27T08:40:14.574Z,36.00
2023-01-27T08:42:45.149Z,36.80
2023-01-27T08:45:15.574Z,37.40
2023-01-27T08:47:47.053Z,35.80
2023-01-27T08:50:17.488Z,32.30
2023-01-27T08:52:47.908Z,34.70
2023-01-27T08:55:18.748Z,29.70
2023-01-27T08:57:49.010Z,33.30
2023-01-27T09:00:21.189Z,32.70
2023-01-27T09:02:53.179Z,29.70
2023-01-27T09:05:23.516Z,30.10
2023-01-27T09:07:54.071Z,28.40
2023-01-27T09:10:24.833Z,29.40
2023-01-27T09:12:55.367Z,31.30
2023-01-27T09:15:26.097Z,30.40
2023-01-27T09:17:56.690Z,31.90
2023-01-27T09:20:27.596Z,35.00
2023-01-27T09:22:58.455Z,31.20
2023-01-27T09:25:29.555Z,31.00
2023-01-27T09:28:05.723Z,32.00
2023-01-27T09:30:35.900Z,32.80
2023-01-27T09:33:11.109Z,31.90
2023-01-27T09:35:45.137Z,27.50
2023-01-27T09:38:18.177Z,29.90
2023-01-27T09:41:05.428Z,25.50
2023-01-27T09:43:55.719Z,32.10
2023-01-27T09:46:38.927Z,27.00
2023-01-27T09:49:39.907Z,28.10
2023-01-27T09:52:24.304Z,31.30
2023-01-27T09:55:01.814Z,31.50
2023-01-27T09:57:40.425Z,31.70
2023-01-27T10:00:22.167Z,30.10
2023-01-27T10:03:08.854Z,26.20
2023-01-27T10:05:55.266Z,30.60
2023-01-27T10:08:47.352Z,22.00
2023-01-27T10:11:26.235Z,30.00
2023-01-27T10:14:06.243Z,28.60
2023-01-27T10:16:52.097Z,28.50
2023-01-27T10:19:46.367Z,28.90
2023-01-27T10:22:23.535Z,30.10
2023-01-27T10:25:12.912Z,27.20
2023-01-27T10:27:49.192Z,31.40
2023-01-27T10:30:25.306Z,26.90
2023-01-27T10:33:04.344Z,29.90
2023-01-27T10:35:41.847Z,24.90
2023-01-27T10:38:18.443Z,29.30
2023-01-27T10:40:54.826Z,23.70
2023-01-27T10:43:30.123Z,25.70
2023-01-27T10:46:08.176Z,30.70
2023-01-27T10:48:46.485Z,29.60
2023-01-27T10:51:21.803Z,29.90
2023-01-27T10:53:57.208Z,27.10
2023-01-27T10:56:34.288Z,35.20
2023-01-27T10:59:10.452Z,30.30
2023-01-27T11:01:44.083Z,26.70
2023-01-27T11:04:16.784Z,28.00
2023-01-27T11:06:47.575Z,28.30
2023-01-27T11:09:25.219Z,27.60
2023-01-27T11:11:58.125Z,28.10
2023-01-27T11:14:30.894Z,29.40
2023-01-27T11:17:11.585Z,26.90
2023-01-27T11:19:56.189Z,27.70
2023-01-27T11:22:29.878Z,29.40
2023-01-27T11:25:05.438Z,30.80
2023-01-27T11:27:53.003Z,30.60
2023-01-27T11:30:28.798Z,30.60
2023-01-27T11:33:05.481Z,27.40
2023-01-27T11:35:36.147Z,30.20
2023-01-27T11:38:15.294Z,27.60
2023-01-27T11:40:47.496Z,31.00
2023-01-27T11:43:19.518Z,30.90
2023-01-27T11:45:50.176Z,27.20
2023-01-27T11:48:23.460Z,24.40
2023-01-27T11:50:53.795Z,24.20
2023-01-27T11:53:28.537Z,29.40
2023-01-27T11:56:01.011Z,23.20
2023-01-27T11:58:35.540Z,28.20
2023-01-27T12:01:10.311Z,32.80
2023-01-27T12:03:51.858Z,32.40
2023-01-27T12:06:32.096Z,26.30
2023-01-27T12:09:02.691Z,30.90
2023-01-27T12:11:33.722Z,30.80
2023-01-27T12:16:44.251Z,32.50
2023-01-27T12:19:26.088Z,28.40
2023-01-27T12:21:59.717Z,32.10
2023-01-27T12:24:31.491Z,29.10
2023-01-27T12:27:02.671Z,35.00
2023-01-27T12:29:39.402Z,30.80
2023-01-27T12:34:46.489Z,31.80
2023-01-27T12:37:23.182Z,33.30
2023-01-27T12:39:57.466Z,31.80
2023-01-27T12:42:42.224Z,33.70
2023-01-27T12:45:29.102Z,34.50
2023-01-27T12:48:02.186Z,32.30
2023-01-27T12:50:34.940Z,34.10
2023-01-27T12:53:13.321Z,29.90
2023-01-27T12:55:50.163Z,35.70
2023-01-27T12:58:39.609Z,31.60
2023-01-27T13:01:24.180Z,32.80
2023-01-27T13:03:57.375Z,36.90
2023-01-27T13:06:34.956Z,33.00
2023-01-27T13:09:05.314Z,33.90
2023-01-27T13:11:39.742Z,33.60
2023-01-27T13:14:14.099Z,33.20
2023-01-27T13:16:53.365Z,32.10
2023-01-27T13:19:33.813Z,34.70
2023-01-27T13:22:04.879Z,31.30
2023-01-27T13:24:42.043Z,33.20
2023-01-27T13:27:16.933Z,33.10
2023-01-27T13:29:52.733Z,34.70
2023-01-27T13:32:25.488Z,32.10
2023-01-27T13:35:01.427Z,36.80
2023-01-27T13:37:36.333Z,38.00
2023-01-27T13:40:10.797Z,33.40
2023-01-27T13:42:47.639Z,37.00
2023-01-27T13:45:19.859Z,31.90
2023-01-27T13:47:56.147Z,41.30
2023-01-27T13:50:29.510Z,34.40
2023-01-27T13:53:00.790Z,34.40
2023-01-27T13:55:47.048Z,34.40
2023-01-27T13:58:24.255Z,33.80
2023-01-27T14:00:59.500Z,37.10
2023-01-27T14:04:03.064Z,29.80
2023-01-27T14:06:40.149Z,32.70
2023-01-27T14:09:31.900Z,35.30
2023-01-27T14:12:07.639Z,31.10
2023-01-27T14:14:57.777Z,38.90
2023-01-27T14:17:36.015Z,35.70
2023-01-27T14:20:19.217Z,34.60
2023-01-27T14:22:57.135Z,38.40
2023-01-27T14:25:33.361Z,34.20
2023-01-27T14:28:10.811Z,31.90
2023-01-27T14:30:44.216Z,38.60
2023-01-27T14:33:22.062Z,24.20
2023-01-27T14:35:54.337Z,48.90
2023-01-27T14:38:29.225Z,32.50
2023-01-27T14:41:12.515Z,36.70
2023-01-27T14:43:48.453Z,34.00
2023-01-27T14:46:25.250Z,39.40
2023-01-27T14:49:04.243Z,36.30
2023-01-27T14:51:39.354Z,33.70
2023-01-27T14:54:32.499Z,39.40
2023-01-27T14:57:11.743Z,42.20
2023-01-27T14:59:48.233Z,35.80
2023-01-27T15:02:32.424Z,40.90
2023-01-27T15:05:06.375Z,38.30
2023-01-27T15:07:40.230Z,42.50
2023-01-27T15:10:22.882Z,43.50
2023-01-27T15:13:25.647Z,44.20
2023-01-27T15:16:05.645Z,37.00
2023-01-27T15:18:48.604Z,36.80
2023-01-27T15:24:16.228Z,41.10
2023-01-27T15:26:46.990Z,43.30
2023-01-27T15:29:20.436Z,47.90
2023-01-27T15:32:22.577Z,43.50
2023-01-27T15:34:54.963Z,41.30
2023-01-27T15:37:28.225Z,43.10
2023-01-27T15:40:11.346Z,30.80
2023-01-27T15:43:02.945Z,41.40
2023-01-27T15:45:35.815Z,36.80
2023-01-27T15:48:11.503Z,43.10
2023-01-27T15:50:47.668Z,47.10
2023-01-27T15:53:34.443Z,40.40
2023-01-27T15:56:06.817Z,43.00
2023-01-27T15:58:40.525Z,47.80
2023-01-27T16:01:24.593Z,44.60
2023-01-27T16:04:12.502Z,47.20
2023-01-27T16:06:48.680Z,53.60
2023-01-27T16:09:35.254Z,61.50
2023-01-27T16:12:26.695Z,45.40
2023-01-27T16:15:28.870Z,63.90
2023-01-27T16:18:03.941Z,59.70
2023-01-27T16:20:40.134Z,60.40
2023-01-27T16:23:14.854Z,59.60
2023-01-27T16:25:50.003Z,49.80
2023-01-27T16:28:23.653Z,49.90
2023-01-27T16:31:05.051Z,59.90
2023-01-27T16:33:40.583Z,49.50
2023-01-27T16:36:25.383Z,52.50
2023-01-27T16:38:57.463Z,68.40
2023-01-27T16:41:32.874Z,66.00
2023-01-27T16:44:07.738Z,59.40
2023-01-27T16:46:40.502Z,61.40
2023-01-27T16:49:15.637Z,61.90
2023-01-27T16:51:56.497Z,60.00
2023-01-27T16:54:32.285Z,50.20
2023-01-27T16:57:04.586Z,47.60
2023-01-27T16:59:37.969Z,51.50
2023-01-27T17:02:20.566Z,51.70
2023-01-27T17:04:59.278Z,52.50
2023-01-27T17:07:31.771Z,59.10
2023-01-27T17:10:10.143Z,58.70
2023-01-27T17:12:45.744Z,69.20
2023-01-27T17:15:21.938Z,56.70
2023-01-27T17:17:55.008Z,60.20
2023-01-27T17:20:29.322Z,51.30
2023-01-27T17:23:00.228Z,52.50
2023-01-27T17:25:34.662Z,55.60
2023-01-27T17:28:08.068Z,54.90
2023-01-27T17:30:42.197Z,52.30
2023-01-27T17:33:18.977Z,52.40
2023-01-27T17:35:53.376Z,51.70
2023-01-27T17:38:25.208Z,60.00
2023-01-27T17:40:56.218Z,37.50
2023-01-27T17:43:29.188Z,44.50
2023-01-27T17:46:16.627Z,46.30
2023-01-27T17:48:51.810Z,37.10
2023-01-27T17:51:24.619Z,41.00
2023-01-27T17:53:56.544Z,41.30
2023-01-27T17:56:32.052Z,46.80
2023-01-27T17:59:05.363Z,47.80
2023-01-27T18:01:36.469Z,54.90
2023-01-27T18:04:07.200Z,44.30
2023-01-27T18:06:37.829Z,44.60
2023-01-27T18:09:18.869Z,34.80
2023-01-27T18:12:00.058Z,47.70
2023-01-27T18:14:35.568Z,59.10
2023-01-27T18:17:19.796Z,57.90
2023-01-27T18:19:52.706Z,47.40
2023-01-27T18:22:25.696Z,51.10
2023-01-27T18:24:57.442Z,49.80
2023-01-27T18:27:32.523Z,51.10
2023-01-27T18:30:07.114Z,47.50
2023-01-27T18:32:42.648Z,44.80
2023-01-27T18:35:26.917Z,40.80
2023-01-27T18:38:01.331Z,25.00
2023-01-27T18:40:33.661Z,38.50
2023-01-27T18:43:05.131Z,46.10
2023-01-27T18:45:35.499Z,33.40
2023-01-27T18:48:11.299Z,36.80
2023-01-27T18:50:44.830Z,31.30
2023-01-27T18:53:17.029Z,31.60
2023-01-27T18:55:47.738Z,35.30
2023-01-27T18:58:20.199Z,34.50
2023-01-27T19:00:52.962Z,38.00
2023-01-27T19:03:26.359Z,38.00
2023-01-27T19:05:58.079Z,35.50
2023-01-27T19:08:30.792Z,38.20
2023-01-27T19:11:00.958Z,34.30
2023-01-27T19:13:33.630Z,40.10
2023-01-27T19:16:04.008Z,36.30
2023-01-27T19:18:36.319Z,32.30
2023-01-27T19:21:07.559Z,36.70
2023-01-27T19:23:38.264Z,27.10
2023-01-27T19:26:15.069Z,29.80
2023-01-27T19:31:14.670Z,30.60
2023-01-27T19:33:47.595Z,37.70
2023-01-27T19:36:22.945Z,43.10
2023-01-27T19:38:58.568Z,39.00
2023-01-27T19:41:28.777Z,38.30
2023-01-27T19:44:01.662Z,40.70
2023-01-27T19:46:32.102Z,34.80
2023-01-27T19:49:02.239Z,38.90
2023-01-27T19:51:34.112Z,41.80
2023-01-27T19:54:04.497Z,38.40
2023-01-27T19:56:36.243Z,39.50
2023-01-27T19:59:06.677Z,38.80
2023-01-27T20:01:36.926Z,38.30
2023-01-27T20:04:07.472Z,23.50
2023-01-27T20:06:38.190Z,43.10
2023-01-27T20:09:08.478Z,37.20
2023-01-27T20:11:39.865Z,35.00
2023-01-27T20:14:13.417Z,36.30
2023-01-27T20:16:43.954Z,29.50
2023-01-27T20:19:15.535Z,30.20
2023-01-27T20:21:49.619Z,34.60
2023-01-27T20:24:20.707Z,25.50
2023-01-27T20:26:51.176Z,29.60
2023-01-27T20:29:21.657Z,24.80
2023-01-27T20:31:52.409Z,30.60
2023-01-27T20:34:22.700Z,28.20
2023-01-27T20:36:53.356Z,32.70
2023-01-27T20:39:23.885Z,37.40
2023-01-27T20:41:54.609Z,26.60
2023-01-27T20:44:24.771Z,31.30
2023-01-27T20:46:55.049Z,35.50
2023-01-27T20:49:25.234Z,31.00
2023-01-27T20:51:55.974Z,37.10
2023-01-27T20:54:26.387Z,32.30
2023-01-27T20:56:57.043Z,36.00
2023-01-27T20:59:27.354Z,36.20
2023-01-27T21:01:58.405Z,33.60
2023-01-27T21:04:28.797Z,30.10
2023-01-27T21:06:59.038Z,30.10
2023-01-27T21:09:28.953Z,29.40
2023-01-27T21:11:59.271Z,29.10
2023-01-27T21:14:29.925Z,34.60
2023-01-27T21:17:00.175Z,32.80
2023-01-27T21:19:31.355Z,32.30
2023-01-27T21:22:01.516Z,30.50
2023-01-27T21:24:32.639Z,35.40
2023-01-27T21:27:02.876Z,34.90
2023-01-27T21:29:33.312Z,33.70
2023-01-27T21:32:03.522Z,32.60
2023-01-27T21:34:33.809Z,25.10
2023-01-27T21:37:03.952Z,29.70
2023-01-27T21:39:34.946Z,31.40
2023-01-27T21:42:23.722Z,34.20
2023-01-27T21:45:12.016Z,37.60
2023-01-27T21:47:43.171Z,28.40
2023-01-27T21:52:45.418Z,28.20
2023-01-27T21:55:18.172Z,31.40
2023-01-27T21:57:50.630Z,29.60
2023-01-27T22:00:23.032Z,20.50
2023-01-27T22:02:57.878Z,29.40
2023-01-27T22:05:29.473Z,31.90
2023-01-27T22:08:01.266Z,29.70
2023-01-27T22:10:31.884Z,32.20
2023-01-27T22:13:03.681Z,29.90
2023-01-27T22:15:34.536Z,28.00
2023-01-27T22:18:08.687Z,28.50
2023-01-27T22:20:39.049Z,39.20
2023-01-27T22:23:09.693Z,33.80
2023-01-27T22:25:42.216Z,36.50
2023-01-27T22:28:12.736Z,32.40
2023-01-27T22:30:42.978Z,31.20
2023-01-27T22:33:13.590Z,33.30
2023-01-27T22:35:43.973Z,32.70
2023-01-27T22:38:14.690Z,31.60
2023-01-27T22:40:45.403Z,30.40
2023-01-27T22:43:15.594Z,29.40
2023-01-27T22:45:45.719Z,29.30
2023-01-27T22:48:16.128Z,29.40
2023-01-27T22:50:47.557Z,30.40
2023-01-27T22:53:17.904Z,31.10
2023-01-27T22:55:48.023Z,25.90
2023-01-27T22:58:18.233Z,27.90
2023-01-27T23:00:48.340Z,29.30
2023-01-27T23:03:20.853Z,31.70
2023-01-27T23:05:51.186Z,26.20
2023-01-27T23:08:21.353Z,26.50
2023-01-27T23:10:52.284Z,27.20
2023-01-27T23:13:22.308Z,25.40
2023-01-27T23:15:53.063Z,29.50
2023-01-27T23:18:23.567Z,27.90
2023-01-27T23:20:54.192Z,30.60
2023-01-27T23:23:24.788Z,33.10
2023-01-27T23:25:54.996Z,31.10
2023-01-27T23:28:25.382Z,34.30
2023-01-27T23:30:56.838Z,32.50
2023-01-27T23:33:29.713Z,30.40
2023-01-27T23:35:59.943Z,36.00
2023-01-27T23:38:33.743Z,38.00
2023-01-27T23:41:04.793Z,39.20
2023-01-27T23:43:34.962Z,38.80
2023-01-27T23:46:05.600Z,33.70
2023-01-27T23:48:35.655Z,29.60
2023-01-27T23:51:09.759Z,33.40
2023-01-27T23:53:39.835Z,28.10
2023-01-27T23:56:13.352Z,31.00
2023-01-27T23:58:43.794Z,28.60
